createdAt,value
2018-08-17T00:02:09.303Z,17.17
2018-08-17T00:04:39.050Z,14.47
2018-08-17T00:07:08.769Z,22.13
2018-08-17T00:09:38.674Z,17.27
2018-08-17T00:12:08.441Z,16.30
2018-08-17T00:14:38.424Z,17.80
2018-08-17T00:17:08.260Z,14.53
2018-08-17T00:19:37.994Z,17.70
2018-08-17T00:22:07.867Z,16.50
2018-08-17T00:24:37.719Z,15.47
2018-08-17T00:27:07.479Z,19.57
2018-08-17T00:29:37.343Z,17.10
2018-08-17T00:32:07.055Z,23.97
2018-08-17T00:34:36.808Z,19.70
2018-08-17T00:37:06.583Z,18.73
2018-08-17T00:39:36.731Z,25.47
2018-08-17T00:42:06.501Z,29.10
2018-08-17T00:44:36.130Z,20.80
2018-08-17T00:47:06.244Z,27.17
2018-08-17T00:49:36.066Z,27.37
2018-08-17T00:52:06.057Z,27.30
2018-08-17T00:54:35.776Z,26.90
2018-08-17T00:57:05.611Z,27.40
2018-08-17T00:59:35.241Z,25.17
2018-08-17T01:02:04.868Z,24.63
2018-08-17T01:04:34.502Z,23.57
2018-08-17T01:07:04.753Z,26.83
2018-08-17T01:09:34.453Z,28.40
2018-08-17T01:12:04.168Z,35.80
2018-08-17T01:14:33.856Z,40.83
2018-08-17T01:17:03.890Z,44.97
2018-08-17T01:19:33.510Z,37.20
2018-08-17T01:22:03.658Z,42.53
2018-08-17T01:24:33.579Z,38.80
2018-08-17T01:27:03.250Z,38.43
2018-08-17T01:29:33.095Z,40.93
2018-08-17T01:32:02.900Z,41.27
2018-08-17T01:34:32.448Z,27.17
2018-08-17T01:37:02.198Z,29.53
2018-08-17T01:39:31.924Z,30.40
2018-08-17T01:42:01.564Z,33.10
2018-08-17T01:44:31.117Z,40.90
2018-08-17T01:47:00.785Z,41.83
2018-08-17T01:49:30.389Z,39.50
2018-08-17T01:52:00.008Z,37.73
2018-08-17T01:54:29.728Z,30.13
2018-08-17T01:56:59.789Z,28.77
2018-08-17T01:59:29.505Z,24.50
2018-08-17T02:01:59.232Z,26.53
2018-08-17T02:04:29.288Z,22.10
2018-08-17T02:06:58.905Z,24.67
2018-08-17T02:09:28.526Z,22.93
2018-08-17T02:11:58.558Z,22.00
2018-08-17T02:14:28.334Z,21.40
2018-08-17T02:16:58.084Z,23.27
2018-08-17T02:19:27.740Z,24.23
2018-08-17T02:21:57.316Z,22.87
2018-08-17T02:24:27.033Z,23.47
2018-08-17T02:26:56.618Z,26.03
2018-08-17T02:29:26.120Z,22.43
2018-08-17T02:31:55.828Z,23.20
2018-08-17T02:34:25.602Z,30.23
2018-08-17T02:36:55.427Z,24.03
2018-08-17T02:39:25.062Z,28.30
2018-08-17T02:41:54.982Z,23.20
2018-08-17T02:44:24.792Z,27.37
2018-08-17T02:46:54.392Z,32.47
2018-08-17T02:49:24.337Z,26.73
2018-08-17T02:51:53.984Z,21.83
2018-08-17T02:54:23.564Z,20.83
2018-08-17T02:56:53.302Z,20.37
2018-08-17T02:59:23.051Z,23.93
2018-08-17T03:01:52.614Z,18.23
2018-08-17T03:04:22.346Z,18.97
2018-08-17T03:06:52.040Z,22.37
2018-08-17T03:09:21.752Z,17.93
2018-08-17T03:11:51.653Z,17.37
2018-08-17T03:14:21.773Z,21.03
2018-08-17T03:16:51.456Z,19.27
2018-08-17T03:19:21.231Z,22.30
2018-08-17T03:21:51.274Z,18.47
2018-08-17T03:24:20.997Z,23.87
2018-08-17T03:26:50.686Z,21.50
2018-08-17T03:29:20.290Z,18.93
2018-08-17T03:31:50.015Z,20.40
2018-08-17T03:34:19.929Z,22.60
2018-08-17T03:36:49.604Z,18.33
2018-08-17T03:39:19.390Z,21.50
2018-08-17T03:41:49.196Z,21.80
2018-08-17T03:44:18.867Z,22.40
2018-08-17T03:46:48.538Z,25.33
2018-08-17T03:49:18.292Z,24.23
2018-08-17T03:51:48.260Z,31.67
2018-08-17T03:54:17.973Z,27.70
2018-08-17T03:56:47.723Z,25.53
2018-08-17T03:59:17.377Z,27.53
2018-08-17T04:01:46.924Z,25.97
2018-08-17T04:04:16.575Z,33.40
2018-08-17T04:06:46.556Z,43.20
2018-08-17T04:09:16.190Z,25.47
2018-08-17T04:11:45.800Z,36.23
2018-08-17T04:14:15.497Z,30.00
2018-08-17T04:16:45.599Z,35.93
2018-08-17T04:19:15.263Z,50.67
2018-08-17T04:21:45.158Z,50.00
2018-08-17T04:24:14.766Z,49.53
2018-08-17T04:26:44.486Z,51.87
2018-08-17T04:29:14.576Z,57.07
2018-08-17T04:31:44.281Z,57.10
2018-08-17T04:34:14.055Z,42.13
2018-08-17T04:36:43.514Z,52.83
2018-08-17T04:39:13.063Z,47.93
2018-08-17T04:41:42.716Z,53.97
2018-08-17T04:44:12.352Z,47.90
2018-08-17T04:46:42.331Z,43.13
2018-08-17T04:49:12.201Z,37.17
2018-08-17T04:51:41.739Z,36.27
2018-08-17T04:54:11.399Z,37.33
2018-08-17T04:56:41.435Z,32.57
2018-08-17T04:59:11.404Z,35.20
2018-08-17T05:01:41.121Z,33.17
2018-08-17T05:04:10.913Z,31.00
2018-08-17T05:06:40.544Z,33.77
2018-08-17T05:09:10.433Z,36.37
2018-08-17T05:11:40.068Z,30.47
2018-08-17T05:14:10.115Z,33.17
2018-08-17T05:16:39.898Z,35.27
2018-08-17T05:19:09.867Z,36.67
2018-08-17T05:21:39.776Z,32.07
2018-08-17T05:24:09.551Z,27.33
2018-08-17T05:26:39.224Z,33.60
2018-08-17T05:29:09.057Z,42.30
2018-08-17T05:31:38.728Z,41.67
2018-08-17T05:34:08.585Z,36.23
2018-08-17T05:36:38.160Z,36.27
2018-08-17T05:39:09.275Z,32.90
2018-08-17T05:41:39.322Z,28.47
2018-08-17T05:44:09.074Z,34.03
2018-08-17T05:46:38.693Z,28.87
2018-08-17T05:49:08.433Z,32.40
2018-08-17T05:51:38.052Z,33.10
2018-08-17T05:54:07.888Z,27.23
2018-08-17T05:56:37.570Z,26.87
2018-08-17T05:59:07.339Z,32.23
2018-08-17T06:01:37.408Z,30.03
2018-08-17T06:04:07.701Z,28.87
2018-08-17T06:06:37.495Z,33.73
2018-08-17T06:09:08.966Z,32.37
2018-08-17T06:11:39.068Z,30.53
2018-08-17T06:14:09.107Z,32.20
2018-08-17T06:16:38.803Z,25.90
2018-08-17T06:19:08.521Z,26.27
2018-08-17T06:21:38.411Z,26.73
2018-08-17T06:24:08.260Z,28.77
2018-08-17T06:26:37.947Z,24.10
2018-08-17T06:29:07.853Z,29.73
2018-08-17T06:31:37.593Z,32.63
2018-08-17T06:34:07.310Z,30.67
2018-08-17T06:36:36.952Z,25.40
2018-08-17T06:39:09.675Z,23.07
2018-08-17T06:41:39.352Z,28.63
2018-08-17T06:44:09.157Z,27.40
2018-08-17T06:46:39.289Z,23.53
2018-08-17T06:49:08.877Z,22.93
2018-08-17T06:51:38.941Z,23.37
2018-08-17T06:54:08.697Z,21.17
2018-08-17T06:56:38.406Z,21.30
2018-08-17T06:59:08.132Z,21.60
2018-08-17T07:01:37.670Z,17.60
2018-08-17T07:04:07.505Z,16.90
2018-08-17T07:06:37.543Z,22.00
2018-08-17T07:09:09.394Z,19.37
2018-08-17T07:11:39.309Z,17.43
2018-08-17T07:14:09.787Z,17.93
2018-08-17T07:16:40.191Z,17.43
2018-08-17T07:19:10.264Z,24.43
2018-08-17T07:21:40.206Z,21.00
2018-08-17T07:24:09.925Z,17.03
2018-08-17T07:26:39.674Z,27.73
2018-08-17T07:29:09.762Z,18.53
2018-08-17T07:31:39.619Z,21.90
2018-08-17T07:34:09.377Z,23.20
2018-08-17T07:36:39.096Z,14.53
2018-08-17T07:39:09.001Z,17.37
2018-08-17T07:41:38.936Z,20.80
2018-08-17T07:44:08.812Z,15.93
2018-08-17T07:46:39.080Z,15.83
2018-08-17T07:49:09.042Z,16.93
2018-08-17T07:51:38.991Z,16.50
2018-08-17T07:54:08.768Z,13.43
2018-08-17T07:56:42.058Z,19.33
2018-08-17T07:59:11.950Z,16.77
2018-08-17T08:01:41.891Z,15.40
2018-08-17T08:04:11.530Z,26.47
2018-08-17T08:06:41.320Z,16.80
2018-08-17T08:09:11.914Z,15.93
2018-08-17T08:11:42.260Z,16.00
2018-08-17T08:14:12.473Z,20.57
2018-08-17T08:16:42.397Z,49.27
2018-08-17T08:19:14.744Z,30.83
2018-08-17T08:21:47.601Z,30.20
2018-08-17T08:24:18.108Z,37.73
2018-08-17T08:26:48.260Z,34.17
2018-08-17T08:29:17.948Z,31.90
2018-08-17T08:31:47.790Z,30.83
2018-08-17T08:34:17.855Z,42.03
2018-08-17T08:36:47.662Z,34.57
2018-08-17T08:39:17.236Z,41.97
2018-08-17T08:41:46.775Z,39.13
2018-08-17T08:44:16.702Z,36.47
2018-08-17T08:46:46.448Z,40.60
2018-08-17T08:49:16.244Z,34.90
2018-08-17T08:51:45.915Z,27.23
2018-08-17T08:54:15.659Z,26.33
2018-08-17T08:56:45.490Z,27.90
2018-08-17T08:59:15.294Z,28.80
2018-08-17T09:01:45.043Z,28.07
2018-08-17T09:04:14.822Z,34.37
2018-08-17T09:06:44.519Z,30.53
2018-08-17T09:09:14.271Z,31.90
2018-08-17T09:11:44.165Z,28.67
2018-08-17T09:14:13.896Z,31.10
2018-08-17T09:16:43.493Z,31.23
2018-08-17T09:19:13.947Z,31.60
2018-08-17T09:21:43.553Z,25.70
2018-08-17T09:24:13.380Z,36.27
2018-08-17T09:26:43.021Z,30.47
2018-08-17T09:29:12.747Z,28.23
2018-08-17T09:31:42.376Z,29.33
2018-08-17T09:34:12.117Z,25.47
2018-08-17T09:36:41.862Z,27.43
2018-08-17T09:39:11.572Z,28.80
2018-08-17T09:41:41.294Z,28.37
2018-08-17T09:44:11.357Z,24.97
2018-08-17T09:46:40.948Z,29.70
2018-08-17T09:49:10.689Z,29.80
2018-08-17T09:51:40.712Z,31.00
2018-08-17T09:54:10.492Z,27.60
2018-08-17T09:56:40.216Z,27.13
2018-08-17T09:59:09.967Z,26.67
2018-08-17T10:01:44.526Z,23.87
2018-08-17T10:04:19.384Z,26.57
2018-08-17T10:06:53.897Z,34.40
2018-08-17T10:09:24.732Z,24.53
2018-08-17T10:11:54.558Z,28.57
2018-08-17T10:14:24.258Z,21.10
2018-08-17T10:16:53.962Z,27.37
2018-08-17T10:19:23.555Z,26.70
2018-08-17T10:21:54.621Z,23.27
2018-08-17T10:24:24.713Z,25.50
2018-08-17T10:26:55.588Z,27.20
2018-08-17T10:29:25.613Z,21.77
2018-08-17T10:31:55.671Z,25.07
2018-08-17T10:34:25.671Z,22.67
2018-08-17T10:36:55.252Z,24.10
2018-08-17T10:39:24.893Z,26.17
2018-08-17T10:41:54.476Z,24.23
2018-08-17T10:44:24.337Z,24.20
2018-08-17T10:46:54.055Z,20.70
2018-08-17T10:49:23.681Z,22.13
2018-08-17T10:51:57.563Z,18.63
2018-08-17T10:54:28.112Z,21.53
2018-08-17T10:56:57.775Z,20.80
2018-08-17T10:59:27.378Z,24.27
2018-08-17T11:01:57.238Z,21.67
2018-08-17T11:04:26.822Z,20.97
2018-08-17T11:06:56.521Z,22.03
2018-08-17T11:09:26.186Z,24.13
2018-08-17T11:11:55.768Z,20.87
2018-08-17T11:14:25.270Z,27.97
2018-08-17T11:22:59.696Z,18.20
2018-08-17T11:25:30.402Z,27.73
2018-08-17T11:28:00.650Z,18.67
2018-08-17T11:30:30.769Z,18.50
2018-08-17T11:33:01.208Z,21.27
2018-08-17T11:35:30.909Z,19.37
2018-08-17T11:38:00.705Z,16.83
2018-08-17T11:40:30.275Z,14.27
2018-08-17T11:43:00.010Z,16.17
2018-08-17T11:45:29.920Z,15.77
2018-08-17T11:48:00.045Z,18.63
2018-08-17T11:50:29.828Z,24.40
2018-08-17T11:53:00.105Z,16.70
2018-08-17T11:55:32.550Z,16.43
2018-08-17T11:58:02.234Z,13.23
2018-08-17T12:00:36.326Z,15.83
2018-08-17T12:03:07.697Z,13.73
2018-08-17T12:05:37.356Z,16.33
2018-08-17T12:08:07.267Z,21.50
2018-08-17T12:10:36.977Z,12.93
2018-08-17T12:13:11.744Z,13.83
2018-08-17T12:15:46.740Z,13.13
2018-08-17T12:18:16.434Z,15.93
2018-08-17T12:20:46.097Z,14.77
2018-08-17T12:23:15.721Z,20.87
2018-08-17T12:25:50.406Z,15.93
2018-08-17T12:28:20.071Z,13.60
2018-08-17T12:30:49.893Z,12.70
2018-08-17T12:33:19.575Z,15.43
2018-08-17T12:35:49.183Z,12.90
2018-08-17T12:38:19.436Z,11.23
2018-08-17T12:40:56.138Z,13.60
2018-08-17T12:43:33.037Z,16.00
2018-08-17T12:46:02.762Z,14.83
2018-08-17T12:48:32.399Z,11.93
2018-08-17T12:51:03.924Z,15.07
2018-08-17T12:53:33.611Z,10.50
2018-08-17T12:56:03.331Z,13.20
2018-08-17T12:58:33.056Z,10.87
2018-08-17T13:01:02.769Z,13.30
2018-08-17T13:03:32.458Z,8.47
2018-08-17T13:06:03.343Z,13.67
2018-08-17T13:08:33.082Z,10.70
2018-08-17T13:11:02.795Z,9.23
2018-08-17T13:13:32.465Z,11.23
2018-08-17T13:16:05.644Z,22.37
2018-08-17T13:18:36.720Z,9.53
2018-08-17T13:21:06.793Z,9.83
2018-08-17T13:23:36.489Z,11.10
2018-08-17T13:26:12.463Z,13.50
2018-08-17T13:28:42.312Z,15.83
2018-08-17T13:31:11.924Z,12.90
2018-08-17T13:33:41.683Z,11.93
2018-08-17T13:36:11.318Z,20.07
2018-08-17T13:38:41.224Z,15.20
2018-08-17T13:41:11.091Z,44.50
2018-08-17T13:43:40.805Z,15.40
2018-08-17T13:46:10.693Z,10.13
2018-08-17T13:48:40.354Z,10.40
2018-08-17T13:51:10.217Z,9.03
2018-08-17T13:53:39.946Z,12.27
2018-08-17T13:56:09.737Z,10.37
2018-08-17T13:58:39.553Z,10.83
2018-08-17T14:01:09.361Z,14.23
2018-08-17T14:03:39.174Z,12.23
2018-08-17T14:06:08.901Z,8.10
2018-08-17T14:08:38.577Z,17.53
2018-08-17T14:11:08.209Z,8.77
2018-08-17T14:13:37.918Z,9.30
2018-08-17T14:16:07.730Z,7.57
2018-08-17T14:18:37.336Z,11.77
2018-08-17T14:21:07.123Z,8.73
2018-08-17T14:23:37.885Z,8.00
2018-08-17T14:26:07.640Z,8.00
2018-08-17T14:28:37.282Z,7.70
2018-08-17T14:31:06.945Z,10.03
2018-08-17T14:33:36.818Z,6.43
2018-08-17T14:36:06.785Z,7.23
2018-08-17T14:38:37.418Z,11.50
2018-08-17T14:41:07.210Z,13.33
2018-08-17T14:43:36.786Z,7.53
2018-08-17T14:46:06.484Z,7.33
2018-08-17T14:48:36.167Z,7.40
2018-08-17T14:51:06.017Z,9.93
2018-08-17T14:53:35.786Z,13.27
2018-08-17T14:56:05.622Z,12.13
2018-08-17T14:58:35.762Z,9.23
2018-08-17T15:01:05.429Z,83.33
2018-08-17T15:03:41.758Z,12.67
2018-08-17T15:06:12.119Z,17.57
2018-08-17T15:08:41.898Z,10.40
2018-08-17T15:11:22.108Z,12.43
2018-08-17T15:13:56.150Z,5.73
2018-08-17T15:16:28.977Z,7.80
2018-08-17T15:19:00.137Z,8.40
2018-08-17T15:21:29.932Z,10.40
2018-08-17T15:24:00.582Z,6.70
2018-08-17T15:26:38.898Z,8.20
2018-08-17T15:29:09.425Z,11.67
2018-08-17T15:31:39.245Z,8.03
2018-08-17T15:34:14.834Z,13.03
2018-08-17T15:36:44.621Z,9.27
2018-08-17T15:39:15.172Z,10.17
2018-08-17T15:41:47.431Z,9.27
2018-08-17T15:44:22.864Z,17.00
2018-08-17T15:46:52.807Z,20.20
2018-08-17T15:49:29.458Z,13.07
2018-08-17T15:52:01.257Z,12.37
2018-08-17T15:54:31.200Z,27.87
2018-08-17T15:57:02.194Z,23.67
2018-08-17T15:59:33.497Z,19.33
2018-08-17T16:02:04.989Z,22.10
2018-08-17T16:04:34.920Z,25.50
2018-08-17T16:07:06.870Z,8.13
2018-08-17T16:09:37.709Z,12.67
2018-08-17T16:12:09.145Z,17.63
2018-08-17T16:14:41.514Z,9.60
2018-08-17T16:17:15.449Z,10.07
2018-08-17T16:19:46.468Z,17.80
2018-08-17T16:22:16.177Z,15.63
2018-08-17T16:24:47.206Z,23.13
2018-08-17T16:27:16.969Z,29.77
2018-08-17T16:29:47.775Z,18.30
2018-08-17T16:32:20.950Z,25.50
2018-08-17T16:34:50.595Z,25.80
2018-08-17T16:37:20.578Z,16.13
2018-08-17T16:39:56.655Z,14.90
2018-08-17T16:42:41.272Z,16.70
2018-08-17T16:45:19.932Z,26.77
2018-08-17T16:48:00.779Z,14.87
2018-08-17T16:50:32.646Z,15.23
2018-08-17T16:53:03.955Z,13.70
2018-08-17T16:55:35.550Z,16.80
2018-08-17T16:58:06.845Z,14.93
2018-08-17T17:00:36.578Z,19.53
2018-08-17T17:03:09.285Z,16.00
2018-08-17T17:09:15.998Z,18.33
2018-08-17T17:11:47.957Z,70.13
2018-08-17T17:14:18.678Z,37.73
2018-08-17T17:16:58.732Z,21.07
2018-08-17T17:19:34.980Z,17.47
2018-08-17T17:22:07.944Z,12.80
2018-08-17T17:24:38.681Z,19.83
2018-08-17T17:27:08.772Z,19.80
2018-08-17T17:29:41.990Z,16.67
2018-08-17T17:32:20.087Z,11.13
2018-08-17T17:34:55.814Z,12.17
2018-08-17T17:37:25.512Z,16.27
2018-08-17T17:39:57.732Z,13.33
2018-08-17T17:42:31.756Z,10.50
2018-08-17T17:45:04.607Z,14.50
2018-08-17T17:47:35.242Z,14.57
2018-08-17T17:50:05.409Z,11.37
2018-08-17T17:52:43.186Z,10.70
2018-08-17T17:55:25.396Z,13.73
2018-08-17T17:58:01.520Z,12.17
2018-08-17T18:00:33.966Z,16.67
2018-08-17T18:03:07.335Z,22.43
2018-08-17T18:05:37.020Z,11.67
2018-08-17T18:08:11.817Z,13.53
2018-08-17T18:10:51.202Z,11.27
2018-08-17T18:13:21.016Z,12.87
2018-08-17T18:15:50.768Z,19.63
2018-08-17T18:18:23.715Z,17.20
2018-08-17T18:20:58.526Z,16.70
2018-08-17T18:23:32.702Z,17.50
2018-08-17T18:26:03.332Z,14.87
2018-08-17T18:28:33.812Z,13.83
2018-08-17T18:31:03.574Z,13.20
2018-08-17T18:33:41.591Z,20.20
2018-08-17T18:36:11.174Z,14.70
2018-08-17T18:38:43.538Z,14.43
2018-08-17T18:41:15.743Z,11.37
2018-08-17T18:43:45.444Z,16.17
2018-08-17T18:46:18.560Z,15.53
2018-08-17T18:48:52.838Z,16.03
2018-08-17T18:51:22.669Z,13.13
2018-08-17T18:53:55.287Z,12.00
2018-08-17T18:56:25.175Z,12.83
2018-08-17T18:58:54.672Z,18.07
2018-08-17T19:01:26.375Z,18.37
2018-08-17T19:03:57.101Z,15.53
2018-08-17T19:06:28.620Z,15.63
2018-08-17T19:08:58.828Z,16.43
2018-08-17T19:11:29.589Z,14.80
2018-08-17T19:13:59.555Z,14.90
2018-08-17T19:16:31.780Z,15.93
2018-08-17T19:19:02.729Z,14.43
2018-08-17T19:21:35.617Z,13.93
2018-08-17T19:24:11.661Z,16.23
2018-08-17T19:26:43.454Z,18.37
2018-08-17T19:29:15.934Z,14.70
2018-08-17T19:31:56.189Z,11.53
2018-08-17T19:34:30.690Z,13.17
2018-08-17T19:37:07.991Z,15.40
2018-08-17T19:39:39.124Z,11.90
2018-08-17T19:42:09.029Z,17.97
2018-08-17T19:44:44.113Z,17.50
2018-08-17T19:47:15.621Z,13.07
2018-08-17T19:49:46.986Z,17.40
2018-08-17T19:59:21.898Z,16.47
2018-08-17T20:01:54.233Z,18.47
2018-08-17T20:04:29.654Z,17.37
2018-08-17T20:07:05.977Z,17.70
2018-08-17T20:09:42.348Z,15.63
2018-08-17T20:12:14.336Z,15.30
2018-08-17T20:14:48.391Z,17.10
2018-08-17T20:17:23.014Z,12.17
2018-08-17T20:19:54.701Z,15.43
2018-08-17T20:22:25.213Z,15.20
2018-08-17T20:24:55.966Z,18.40
2018-08-17T20:27:27.210Z,17.70
2018-08-17T20:30:08.527Z,19.50
2018-08-17T20:32:43.104Z,13.90
2018-08-17T20:35:15.007Z,19.27
2018-08-17T20:37:54.822Z,16.67
2018-08-17T20:40:25.830Z,14.30
2018-08-17T20:42:57.758Z,16.43
2018-08-17T20:45:28.528Z,21.03
2018-08-17T20:47:59.562Z,15.60
2018-08-17T20:50:36.797Z,16.93
2018-08-17T20:53:08.963Z,19.47
2018-08-17T20:55:42.072Z,14.67
2018-08-17T20:58:20.018Z,23.03
2018-08-17T21:00:55.946Z,17.40
2018-08-17T21:03:26.733Z,19.47
2018-08-17T21:05:57.031Z,18.50
2018-08-17T21:08:28.511Z,15.73
2018-08-17T21:11:00.750Z,18.47
2018-08-17T21:13:31.405Z,16.23
2018-08-17T21:16:06.380Z,17.27
2018-08-17T21:18:38.715Z,15.30
2018-08-17T21:21:09.429Z,17.43
2018-08-17T21:23:41.640Z,18.70
2018-08-17T21:26:11.495Z,19.63
2018-08-17T21:35:48.565Z,16.57
2018-08-17T21:38:20.363Z,18.13
2018-08-17T21:40:50.820Z,21.27
2018-08-17T21:43:25.550Z,21.77
2018-08-17T21:46:01.564Z,21.37
2018-08-17T21:48:33.178Z,17.43
2018-08-17T21:51:04.186Z,18.80
2018-08-17T21:53:35.781Z,15.00
2018-08-17T21:56:05.809Z,15.30
2018-08-17T21:58:35.655Z,15.27
2018-08-17T22:01:08.653Z,19.77
2018-08-17T22:03:38.807Z,17.83
2018-08-17T22:06:11.263Z,21.33
2018-08-17T22:08:41.816Z,16.57
2018-08-17T22:11:14.800Z,18.40
2018-08-17T22:13:47.236Z,16.90
2018-08-17T22:16:17.289Z,15.53
2018-08-17T22:18:47.217Z,17.93
2018-08-17T22:21:17.636Z,18.30
2018-08-17T22:23:47.725Z,17.07
2018-08-17T22:26:17.700Z,22.43
2018-08-17T22:28:47.893Z,25.87
2018-08-17T22:31:22.640Z,26.83
2018-08-17T22:33:52.401Z,20.83
2018-08-17T22:36:22.992Z,22.53
2018-08-17T22:38:52.987Z,25.17
2018-08-17T22:41:23.069Z,18.33
2018-08-17T22:43:52.978Z,21.10
2018-08-17T22:46:22.911Z,22.10
2018-08-17T22:48:52.921Z,20.37
2018-08-17T22:51:22.864Z,19.07
2018-08-17T22:53:52.507Z,23.07
2018-08-17T22:56:22.438Z,23.83
2018-08-17T22:58:52.065Z,27.70
2018-08-17T23:01:21.740Z,21.77
2018-08-17T23:03:55.175Z,26.43
2018-08-17T23:06:26.657Z,27.50
2018-08-17T23:08:56.905Z,21.83
2018-08-17T23:11:34.010Z,25.03
2018-08-17T23:14:08.791Z,23.77
2018-08-17T23:16:38.686Z,24.33
2018-08-17T23:19:08.496Z,26.23
2018-08-17T23:21:38.166Z,23.67
2018-08-17T23:24:08.238Z,23.67
2018-08-17T23:26:38.007Z,25.27
2018-08-17T23:29:08.342Z,23.03
2018-08-17T23:31:38.005Z,25.27
2018-08-17T23:34:07.785Z,23.03
2018-08-17T23:36:37.522Z,24.70
2018-08-17T23:39:10.516Z,25.93
2018-08-17T23:41:40.351Z,25.23
2018-08-17T23:44:10.035Z,27.17
2018-08-17T23:46:39.633Z,24.63
2018-08-17T23:49:09.255Z,28.67
2018-08-17T23:51:38.967Z,26.67
2018-08-17T23:54:08.615Z,26.93
2018-08-17T23:56:38.446Z,27.63
2018-08-17T23:59:08.124Z,30.40
